sensor_id;sensor_type;location;lat;lon;timestamp;P1;durP1;ratioP1;P2;durP2;ratioP2
1074;SDS011;526;51.392;12.448;2023-04-10T00:00:07;7.07;;;4.40;;
1074;SDS011;526;51.392;12.448;2023-04-10T00:02:34;7.37;;;5.37;;
1074;SDS011;526;51.392;12.448;2023-04-10T00:05:01;8.43;;;4.97;;
1074;SDS011;526;51.392;12.448;2023-04-10T00:07:27;6.77;;;3.60;;
1074;SDS011;526;51.392;12.448;2023-04-10T00:09:52;7.57;;;4.90;;
1074;SDS011;526;51.392;12.448;2023-04-10T00:12:18;5.60;;;5.30;;
1074;SDS011;526;51.392;12.448;2023-04-10T00:14:43;9.60;;;5.47;;
1074;SDS011;526;51.392;12.448;2023-04-10T00:17:09;7.73;;;4.67;;
1074;SDS011;526;51.392;12.448;2023-04-10T00:19:34;10.03;;;5.40;;
1074;SDS011;526;51.392;12.448;2023-04-10T00:22:03;6.70;;;4.27;;
1074;SDS011;526;51.392;12.448;2023-04-10T00:24:28;14.00;;;6.10;;
1074;SDS011;526;51.392;12.448;2023-04-10T00:26:54;5.30;;;5.00;;
1074;SDS011;526;51.392;12.448;2023-04-10T00:29:21;3.60;;;2.60;;
1074;SDS011;526;51.392;12.448;2023-04-10T00:31:47;5.37;;;5.07;;
1074;SDS011;526;51.392;12.448;2023-04-10T00:34:12;19.80;;;7.40;;
1074;SDS011;526;51.392;12.448;2023-04-10T00:36:38;4.00;;;3.80;;
1074;SDS011;526;51.392;12.448;2023-04-10T00:39:04;16.33;;;5.87;;
1074;SDS011;526;51.392;12.448;2023-04-10T00:41:30;5.83;;;3.67;;
1074;SDS011;526;51.392;12.448;2023-04-10T00:43:56;9.80;;;6.70;;
1074;SDS011;526;51.392;12.448;2023-04-10T00:46:22;3.80;;;2.70;;
1074;SDS011;526;51.392;12.448;2023-04-10T00:48:49;7.53;;;5.60;;
1074;SDS011;526;51.392;12.448;2023-04-10T00:51:16;13.00;;;6.00;;
1074;SDS011;526;51.392;12.448;2023-04-10T00:53:44;16.27;;;6.27;;
1074;SDS011;526;51.392;12.448;2023-04-10T00:56:15;12.63;;;7.80;;
1074;SDS011;526;51.392;12.448;2023-04-10T00:58:42;29.07;;;10.90;;
1074;SDS011;526;51.392;12.448;2023-04-10T01:01:07;29.90;;;14.13;;
1074;SDS011;526;51.392;12.448;2023-04-10T01:03:33;20.13;;;12.90;;
1074;SDS011;526;51.392;12.448;2023-04-10T01:06:03;16.27;;;10.27;;
1074;SDS011;526;51.392;12.448;2023-04-10T01:08:43;19.97;;;8.67;;
1074;SDS011;526;51.392;12.448;2023-04-10T01:11:23;11.63;;;7.27;;
1074;SDS011;526;51.392;12.448;2023-04-10T01:14:02;9.00;;;6.90;;
1074;SDS011;526;51.392;12.448;2023-04-10T01:16:37;3.50;;;3.23;;
1074;SDS011;526;51.392;12.448;2023-04-10T01:19:33;8.80;;;4.37;;
1074;SDS011;526;51.392;12.448;2023-04-10T01:22:06;6.83;;;4.70;;
1074;SDS011;526;51.392;12.448;2023-04-10T01:24:40;7.73;;;5.50;;
1074;SDS011;526;51.392;12.448;2023-04-10T01:27:18;10.20;;;5.03;;
1074;SDS011;526;51.392;12.448;2023-04-10T01:30:05;6.20;;;5.00;;
1074;SDS011;526;51.392;12.448;2023-04-10T01:32:32;10.90;;;5.73;;
1074;SDS011;526;51.392;12.448;2023-04-10T01:35:01;6.70;;;4.73;;
1074;SDS011;526;51.392;12.448;2023-04-10T01:37:30;13.80;;;5.20;;
1074;SDS011;526;51.392;12.448;2023-04-10T01:40:02;6.47;;;4.57;;
1074;SDS011;526;51.392;12.448;2023-04-10T01:42:34;8.33;;;5.00;;
1074;SDS011;526;51.392;12.448;2023-04-10T01:45:08;5.20;;;4.90;;
1074;SDS011;526;51.392;12.448;2023-04-10T01:47:41;6.80;;;4.67;;
1074;SDS011;526;51.392;12.448;2023-04-10T01:50:07;17.77;;;4.53;;
1074;SDS011;526;51.392;12.448;2023-04-10T01:52:35;4.47;;;4.17;;
1074;SDS011;526;51.392;12.448;2023-04-10T01:55:04;9.70;;;4.50;;
1074;SDS011;526;51.392;12.448;2023-04-10T01:57:31;9.83;;;5.60;;
1074;SDS011;526;51.392;12.448;2023-04-10T01:59:59;13.40;;;5.67;;
1074;SDS011;526;51.392;12.448;2023-04-10T02:02:28;4.67;;;4.37;;
1074;SDS011;526;51.392;12.448;2023-04-10T02:04:57;11.60;;;6.80;;
1074;SDS011;526;51.392;12.448;2023-04-10T02:09:57;8.43;;;4.63;;
1074;SDS011;526;51.392;12.448;2023-04-10T02:12:30;12.20;;;6.03;;
1074;SDS011;526;51.392;12.448;2023-04-10T02:15:00;5.97;;;5.67;;
1074;SDS011;526;51.392;12.448;2023-04-10T02:17:29;12.73;;;6.10;;
1074;SDS011;526;51.392;12.448;2023-04-10T02:19:55;6.17;;;4.43;;
1074;SDS011;526;51.392;12.448;2023-04-10T02:22:24;7.00;;;6.60;;
1074;SDS011;526;51.392;12.448;2023-04-10T02:24:52;6.93;;;4.47;;
1074;SDS011;526;51.392;12.448;2023-04-10T02:27:31;8.83;;;5.03;;
1074;SDS011;526;51.392;12.448;2023-04-10T02:29:58;7.77;;;5.23;;
1074;SDS011;526;51.392;12.448;2023-04-10T02:32:25;10.47;;;6.80;;
1074;SDS011;526;51.392;12.448;2023-04-10T02:34:51;18.60;;;6.70;;
1074;SDS011;526;51.392;12.448;2023-04-10T02:37:16;12.90;;;8.47;;
1074;SDS011;526;51.392;12.448;2023-04-10T02:39:42;8.60;;;6.40;;
1074;SDS011;526;51.392;12.448;2023-04-10T02:42:10;9.80;;;6.40;;
1074;SDS011;526;51.392;12.448;2023-04-10T02:44:35;8.87;;;4.83;;
1074;SDS011;526;51.392;12.448;2023-04-10T02:47:03;6.50;;;5.53;;
1074;SDS011;526;51.392;12.448;2023-04-10T02:49:29;8.30;;;6.60;;
1074;SDS011;526;51.392;12.448;2023-04-10T02:51:55;9.13;;;3.87;;
1074;SDS011;526;51.392;12.448;2023-04-10T02:54:21;16.37;;;5.43;;
1074;SDS011;526;51.392;12.448;2023-04-10T02:56:46;11.90;;;6.43;;
1074;SDS011;526;51.392;12.448;2023-04-10T02:59:12;3.23;;;3.07;;
1074;SDS011;526;51.392;12.448;2023-04-10T03:01:37;12.00;;;4.90;;
1074;SDS011;526;51.392;12.448;2023-04-10T03:04:03;12.00;;;6.00;;
1074;SDS011;526;51.392;12.448;2023-04-10T03:06:31;6.40;;;4.07;;
1074;SDS011;526;51.392;12.448;2023-04-10T03:08:59;11.23;;;5.50;;
1074;SDS011;526;51.392;12.448;2023-04-10T03:11:27;9.50;;;5.30;;
1074;SDS011;526;51.392;12.448;2023-04-10T03:13:54;12.07;;;7.67;;
1074;SDS011;526;51.392;12.448;2023-04-10T03:16:22;10.67;;;5.00;;
1074;SDS011;526;51.392;12.448;2023-04-10T03:18:48;17.07;;;6.83;;
1074;SDS011;526;51.392;12.448;2023-04-10T03:21:13;14.77;;;5.10;;
1074;SDS011;526;51.392;12.448;2023-04-10T03:23:39;15.60;;;4.77;;
1074;SDS011;526;51.392;12.448;2023-04-10T03:26:05;8.67;;;4.87;;
1074;SDS011;526;51.392;12.448;2023-04-10T03:28:31;5.83;;;3.97;;
1074;SDS011;526;51.392;12.448;2023-04-10T03:30:57;10.57;;;8.13;;
1074;SDS011;526;51.392;12.448;2023-04-10T03:33:23;5.77;;;4.00;;
1074;SDS011;526;51.392;12.448;2023-04-10T03:35:48;7.43;;;4.07;;
1074;SDS011;526;51.392;12.448;2023-04-10T03:38:14;8.47;;;5.20;;
1074;SDS011;526;51.392;12.448;2023-04-10T03:40:39;9.47;;;4.63;;
1074;SDS011;526;51.392;12.448;2023-04-10T03:43:05;13.90;;;4.50;;
1074;SDS011;526;51.392;12.448;2023-04-10T03:45:30;5.33;;;3.30;;
1074;SDS011;526;51.392;12.448;2023-04-10T03:47:56;12.00;;;5.77;;
1074;SDS011;526;51.392;12.448;2023-04-10T03:50:22;4.77;;;3.67;;
1074;SDS011;526;51.392;12.448;2023-04-10T03:52:48;10.13;;;5.13;;
1074;SDS011;526;51.392;12.448;2023-04-10T03:55:16;10.50;;;4.73;;
1074;SDS011;526;51.392;12.448;2023-04-10T03:57:45;5.50;;;4.33;;
1074;SDS011;526;51.392;12.448;2023-04-10T04:00:11;9.63;;;3.70;;
1074;SDS011;526;51.392;12.448;2023-04-10T04:02:38;12.20;;;7.27;;
1074;SDS011;526;51.392;12.448;2023-04-10T04:05:03;10.10;;;5.13;;
1074;SDS011;526;51.392;12.448;2023-04-10T04:07:29;4.27;;;4.00;;
1074;SDS011;526;51.392;12.448;2023-04-10T04:09:55;5.53;;;3.80;;
1074;SDS011;526;51.392;12.448;2023-04-10T04:12:21;6.17;;;5.23;;
1074;SDS011;526;51.392;12.448;2023-04-10T04:14:46;4.47;;;4.13;;
1074;SDS011;526;51.392;12.448;2023-04-10T04:17:12;12.87;;;5.60;;
1074;SDS011;526;51.392;12.448;2023-04-10T04:19:38;5.60;;;4.30;;
1074;SDS011;526;51.392;12.448;2023-04-10T04:22:04;7.73;;;6.00;;
1074;SDS011;526;51.392;12.448;2023-04-10T04:24:30;11.03;;;4.30;;
1074;SDS011;526;51.392;12.448;2023-04-10T04:26:55;9.27;;;5.20;;
1074;SDS011;526;51.392;12.448;2023-04-10T04:29:44;5.53;;;5.23;;
1074;SDS011;526;51.392;12.448;2023-04-10T04:32:14;8.33;;;7.23;;
1074;SDS011;526;51.392;12.448;2023-04-10T04:34:42;8.87;;;3.47;;
1074;SDS011;526;51.392;12.448;2023-04-10T04:37:27;9.40;;;4.97;;
1074;SDS011;526;51.392;12.448;2023-04-10T04:39:52;5.20;;;4.90;;
1074;SDS011;526;51.392;12.448;2023-04-10T04:42:20;6.77;;;6.00;;
1074;SDS011;526;51.392;12.448;2023-04-10T04:44:46;5.87;;;5.37;;
1074;SDS011;526;51.392;12.448;2023-04-10T04:47:12;7.70;;;5.50;;
1074;SDS011;526;51.392;12.448;2023-04-10T04:49:38;5.50;;;3.23;;
1074;SDS011;526;51.392;12.448;2023-04-10T04:52:03;6.33;;;4.77;;
1074;SDS011;526;51.392;12.448;2023-04-10T04:54:39;4.93;;;4.63;;
1074;SDS011;526;51.392;12.448;2023-04-10T04:57:05;9.03;;;6.00;;
1074;SDS011;526;51.392;12.448;2023-04-10T04:59:31;6.47;;;4.50;;
1074;SDS011;526;51.392;12.448;2023-04-10T05:01:56;10.43;;;7.93;;
1074;SDS011;526;51.392;12.448;2023-04-10T05:04:24;11.90;;;5.80;;
1074;SDS011;526;51.392;12.448;2023-04-10T05:06:50;7.33;;;3.00;;
1074;SDS011;526;51.392;12.448;2023-04-10T05:09:15;11.80;;;5.97;;
1074;SDS011;526;51.392;12.448;2023-04-10T05:11:43;12.60;;;4.40;;
1074;SDS011;526;51.392;12.448;2023-04-10T05:14:09;6.70;;;4.60;;
1074;SDS011;526;51.392;12.448;2023-04-10T05:16:35;6.77;;;4.13;;
1074;SDS011;526;51.392;12.448;2023-04-10T05:19:02;10.33;;;6.00;;
1074;SDS011;526;51.392;12.448;2023-04-10T05:21:28;8.43;;;4.77;;
1074;SDS011;526;51.392;12.448;2023-04-10T05:23:53;20.43;;;6.33;;
1074;SDS011;526;51.392;12.448;2023-04-10T05:26:19;23.43;;;10.83;;
1074;SDS011;526;51.392;12.448;2023-04-10T05:28:44;21.20;;;12.47;;
1074;SDS011;526;51.392;12.448;2023-04-10T05:31:10;15.13;;;7.00;;
1074;SDS011;526;51.392;12.448;2023-04-10T05:33:36;7.90;;;4.83;;
1074;SDS011;526;51.392;12.448;2023-04-10T05:36:01;10.87;;;7.10;;
1074;SDS011;526;51.392;12.448;2023-04-10T05:38:27;18.03;;;7.03;;
1074;SDS011;526;51.392;12.448;2023-04-10T05:40:52;6.97;;;6.00;;
1074;SDS011;526;51.392;12.448;2023-04-10T05:43:18;14.13;;;8.77;;
1074;SDS011;526;51.392;12.448;2023-04-10T05:45:45;9.63;;;6.70;;
1074;SDS011;526;51.392;12.448;2023-04-10T05:48:11;5.70;;;5.23;;
1074;SDS011;526;51.392;12.448;2023-04-10T05:50:37;12.97;;;5.90;;
1074;SDS011;526;51.392;12.448;2023-04-10T05:53:03;9.53;;;6.17;;
1074;SDS011;526;51.392;12.448;2023-04-10T05:55:31;25.90;;;9.20;;
1074;SDS011;526;51.392;12.448;2023-04-10T05:57:57;12.47;;;11.70;;
1074;SDS011;526;51.392;12.448;2023-04-10T06:00:25;17.13;;;10.57;;
1074;SDS011;526;51.392;12.448;2023-04-10T06:02:51;19.57;;;10.93;;
1074;SDS011;526;51.392;12.448;2023-04-10T06:05:19;13.80;;;6.53;;
1074;SDS011;526;51.392;12.448;2023-04-10T06:07:45;12.93;;;6.67;;
1074;SDS011;526;51.392;12.448;2023-04-10T06:10:13;16.23;;;9.17;;
1074;SDS011;526;51.392;12.448;2023-04-10T06:12:41;17.07;;;6.60;;
1074;SDS011;526;51.392;12.448;2023-04-10T06:15:11;7.80;;;5.20;;
1074;SDS011;526;51.392;12.448;2023-04-10T06:17:49;14.03;;;6.53;;
1074;SDS011;526;51.392;12.448;2023-04-10T06:20:18;15.73;;;9.07;;
1074;SDS011;526;51.392;12.448;2023-04-10T06:22:47;6.47;;;5.93;;
1074;SDS011;526;51.392;12.448;2023-04-10T06:25:12;19.93;;;6.60;;
1074;SDS011;526;51.392;12.448;2023-04-10T06:27:40;12.33;;;6.97;;
1074;SDS011;526;51.392;12.448;2023-04-10T06:30:08;6.83;;;3.47;;
1074;SDS011;526;51.392;12.448;2023-04-10T06:32:35;4.63;;;4.33;;
1074;SDS011;526;51.392;12.448;2023-04-10T06:35:00;10.23;;;5.27;;
1074;SDS011;526;51.392;12.448;2023-04-10T06:37:27;12.37;;;5.70;;
1074;SDS011;526;51.392;12.448;2023-04-10T06:40:03;13.03;;;7.53;;
1074;SDS011;526;51.392;12.448;2023-04-10T06:42:34;11.40;;;8.07;;
1074;SDS011;526;51.392;12.448;2023-04-10T06:45:02;8.37;;;4.87;;
1074;SDS011;526;51.392;12.448;2023-04-10T06:47:28;5.83;;;4.70;;
1074;SDS011;526;51.392;12.448;2023-04-10T06:49:56;6.67;;;4.43;;
1074;SDS011;526;51.392;12.448;2023-04-10T06:52:21;5.77;;;5.07;;
1074;SDS011;526;51.392;12.448;2023-04-10T06:54:47;15.50;;;7.70;;
1074;SDS011;526;51.392;12.448;2023-04-10T06:57:12;13.83;;;5.83;;
1074;SDS011;526;51.392;12.448;2023-04-10T06:59:38;17.67;;;6.70;;
1074;SDS011;526;51.392;12.448;2023-04-10T07:02:03;5.77;;;4.13;;
1074;SDS011;526;51.392;12.448;2023-04-10T07:04:30;7.67;;;3.80;;
1074;SDS011;526;51.392;12.448;2023-04-10T07:06:56;9.30;;;6.53;;
1074;SDS011;526;51.392;12.448;2023-04-10T07:09:27;3.90;;;3.40;;
1074;SDS011;526;51.392;12.448;2023-04-10T07:11:53;14.27;;;6.40;;
1074;SDS011;526;51.392;12.448;2023-04-10T07:14:19;29.47;;;6.37;;
1074;SDS011;526;51.392;12.448;2023-04-10T07:16:45;4.07;;;3.33;;
1074;SDS011;526;51.392;12.448;2023-04-10T07:19:16;11.63;;;6.60;;
1074;SDS011;526;51.392;12.448;2023-04-10T07:21:47;6.03;;;5.73;;
1074;SDS011;526;51.392;12.448;2023-04-10T07:24:21;7.10;;;4.20;;
1074;SDS011;526;51.392;12.448;2023-04-10T07:26:47;10.00;;;4.13;;
1074;SDS011;526;51.392;12.448;2023-04-10T07:29:13;5.60;;;3.93;;
1074;SDS011;526;51.392;12.448;2023-04-10T07:31:48;5.73;;;4.77;;
1074;SDS011;526;51.392;12.448;2023-04-10T07:34:16;9.60;;;5.50;;
1074;SDS011;526;51.392;12.448;2023-04-10T07:36:44;5.00;;;4.70;;
1074;SDS011;526;51.392;12.448;2023-04-10T07:39:09;13.87;;;4.80;;
1074;SDS011;526;51.392;12.448;2023-04-10T07:41:35;7.13;;;6.30;;
1074;SDS011;526;51.392;12.448;2023-04-10T07:44:00;5.40;;;4.10;;
1074;SDS011;526;51.392;12.448;2023-04-10T07:46:26;3.67;;;3.47;;
1074;SDS011;526;51.392;12.448;2023-04-10T07:48:51;6.43;;;3.70;;
1074;SDS011;526;51.392;12.448;2023-04-10T07:51:19;14.60;;;4.33;;
1074;SDS011;526;51.392;12.448;2023-04-10T07:53:45;8.53;;;3.30;;
1074;SDS011;526;51.392;12.448;2023-04-10T07:56:16;8.30;;;6.50;;
1074;SDS011;526;51.392;12.448;2023-04-10T07:58:43;10.93;;;4.53;;
1074;SDS011;526;51.392;12.448;2023-04-10T08:01:08;14.87;;;6.47;;
1074;SDS011;526;51.392;12.448;2023-04-10T08:03:38;7.23;;;5.27;;
1074;SDS011;526;51.392;12.448;2023-04-10T08:06:04;18.70;;;5.80;;
1074;SDS011;526;51.392;12.448;2023-04-10T08:08:33;11.97;;;6.90;;
1074;SDS011;526;51.392;12.448;2023-04-10T08:11:05;5.90;;;3.83;;
1074;SDS011;526;51.392;12.448;2023-04-10T08:13:45;7.63;;;5.30;;
1074;SDS011;526;51.392;12.448;2023-04-10T08:16:10;13.13;;;5.60;;
1074;SDS011;526;51.392;12.448;2023-04-10T08:18:36;12.10;;;6.00;;
1074;SDS011;526;51.392;12.448;2023-04-10T08:21:04;11.80;;;6.83;;
1074;SDS011;526;51.392;12.448;2023-04-10T08:23:36;7.13;;;5.63;;
1074;SDS011;526;51.392;12.448;2023-04-10T08:26:02;8.40;;;4.10;;
1074;SDS011;526;51.392;12.448;2023-04-10T08:28:30;16.63;;;8.43;;
1074;SDS011;526;51.392;12.448;2023-04-10T08:30:56;13.70;;;7.93;;
1074;SDS011;526;51.392;12.448;2023-04-10T08:33:24;16.50;;;7.00;;
1074;SDS011;526;51.392;12.448;2023-04-10T08:35:51;6.10;;;4.50;;
1074;SDS011;526;51.392;12.448;2023-04-10T08:38:19;5.37;;;3.97;;
1074;SDS011;526;51.392;12.448;2023-04-10T08:40:47;11.10;;;6.30;;
1074;SDS011;526;51.392;12.448;2023-04-10T08:43:13;10.73;;;5.03;;
1074;SDS011;526;51.392;12.448;2023-04-10T08:45:41;7.30;;;3.93;;
1074;SDS011;526;51.392;12.448;2023-04-10T08:48:10;3.47;;;3.27;;
1074;SDS011;526;51.392;12.448;2023-04-10T08:50:38;8.03;;;6.30;;
1074;SDS011;526;51.392;12.448;2023-04-10T08:53:11;5.40;;;4.63;;
1074;SDS011;526;51.392;12.448;2023-04-10T08:55:38;9.30;;;4.20;;
1074;SDS011;526;51.392;12.448;2023-04-10T08:58:05;11.23;;;6.00;;
1074;SDS011;526;51.392;12.448;2023-04-10T09:00:34;7.80;;;4.17;;
1074;SDS011;526;51.392;12.448;2023-04-10T09:03:02;19.13;;;6.00;;
1074;SDS011;526;51.392;12.448;2023-04-10T09:05:32;9.10;;;5.10;;
1074;SDS011;526;51.392;12.448;2023-04-10T09:07:59;7.50;;;5.60;;
1074;SDS011;526;51.392;12.448;2023-04-10T09:10:24;9.03;;;4.23;;
1074;SDS011;526;51.392;12.448;2023-04-10T09:12:50;15.53;;;6.73;;
1074;SDS011;526;51.392;12.448;2023-04-10T09:15:16;11.90;;;5.37;;
1074;SDS011;526;51.392;12.448;2023-04-10T09:17:54;6.53;;;4.77;;
1074;SDS011;526;51.392;12.448;2023-04-10T09:20:21;6.50;;;3.60;;
1074;SDS011;526;51.392;12.448;2023-04-10T09:22:47;8.13;;;4.90;;
1074;SDS011;526;51.392;12.448;2023-04-10T09:25:27;5.23;;;3.63;;
1074;SDS011;526;51.392;12.448;2023-04-10T09:28:07;10.77;;;5.00;;
1074;SDS011;526;51.392;12.448;2023-04-10T09:36:00;13.87;;;5.97;;
1074;SDS011;526;51.392;12.448;2023-04-10T09:38:27;8.80;;;5.07;;
1074;SDS011;526;51.392;12.448;2023-04-10T09:40:53;9.47;;;5.80;;
1074;SDS011;526;51.392;12.448;2023-04-10T09:43:30;10.33;;;5.43;;
1074;SDS011;526;51.392;12.448;2023-04-10T09:45:56;28.83;;;7.23;;
1074;SDS011;526;51.392;12.448;2023-04-10T09:48:22;8.47;;;5.60;;
1074;SDS011;526;51.392;12.448;2023-04-10T09:50:51;14.07;;;4.80;;
1074;SDS011;526;51.392;12.448;2023-04-10T09:53:17;12.93;;;5.57;;
1074;SDS011;526;51.392;12.448;2023-04-10T09:55:44;13.60;;;6.20;;
1074;SDS011;526;51.392;12.448;2023-04-10T09:58:14;11.20;;;4.47;;
1074;SDS011;526;51.392;12.448;2023-04-10T10:00:46;14.80;;;6.10;;
1074;SDS011;526;51.392;12.448;2023-04-10T10:03:13;12.60;;;6.10;;
1074;SDS011;526;51.392;12.448;2023-04-10T10:05:43;17.77;;;7.90;;
1074;SDS011;526;51.392;12.448;2023-04-10T10:08:12;5.73;;;5.43;;
1074;SDS011;526;51.392;12.448;2023-04-10T10:10:39;12.90;;;5.57;;
1074;SDS011;526;51.392;12.448;2023-04-10T10:13:10;10.03;;;3.93;;
1074;SDS011;526;51.392;12.448;2023-04-10T10:15:45;7.10;;;3.53;;
1074;SDS011;526;51.392;12.448;2023-04-10T10:21:06;6.10;;;3.73;;
1074;SDS011;526;51.392;12.448;2023-04-10T10:23:33;6.20;;;3.50;;
1074;SDS011;526;51.392;12.448;2023-04-10T10:26:00;5.20;;;3.77;;
1074;SDS011;526;51.392;12.448;2023-04-10T10:28:32;5.17;;;3.87;;
1074;SDS011;526;51.392;12.448;2023-04-10T10:30:58;4.27;;;3.93;;
1074;SDS011;526;51.392;12.448;2023-04-10T10:33:25;3.93;;;3.17;;
1074;SDS011;526;51.392;12.448;2023-04-10T10:35:51;4.10;;;2.83;;
1074;SDS011;526;51.392;12.448;2023-04-10T10:38:17;4.93;;;2.70;;
1074;SDS011;526;51.392;12.448;2023-04-10T10:43:36;3.80;;;3.50;;
1074;SDS011;526;51.392;12.448;2023-04-10T10:46:03;5.80;;;3.67;;
1074;SDS011;526;51.392;12.448;2023-04-10T10:48:30;4.87;;;3.80;;
1074;SDS011;526;51.392;12.448;2023-04-10T10:50:56;6.40;;;3.40;;
1074;SDS011;526;51.392;12.448;2023-04-10T10:53:44;4.90;;;3.27;;
1074;SDS011;526;51.392;12.448;2023-04-10T10:58:47;5.77;;;5.40;;
1074;SDS011;526;51.392;12.448;2023-04-10T11:01:14;7.53;;;3.77;;
1074;SDS011;526;51.392;12.448;2023-04-10T11:03:40;21.20;;;11.80;;
1074;SDS011;526;51.392;12.448;2023-04-10T11:06:09;7.03;;;5.30;;
1074;SDS011;526;51.392;12.448;2023-04-10T11:11:12;8.30;;;4.37;;
1074;SDS011;526;51.392;12.448;2023-04-10T11:16:17;8.07;;;4.93;;
1074;SDS011;526;51.392;12.448;2023-04-10T11:21:15;6.43;;;3.13;;
1074;SDS011;526;51.392;12.448;2023-04-10T11:24:06;5.50;;;3.40;;
1074;SDS011;526;51.392;12.448;2023-04-10T11:29:31;9.43;;;5.00;;
1074;SDS011;526;51.392;12.448;2023-04-10T11:31:54;7.13;;;3.83;;
1074;SDS011;526;51.392;12.448;2023-04-10T11:34:21;9.23;;;5.37;;
1074;SDS011;526;51.392;12.448;2023-04-10T11:36:47;7.90;;;4.50;;
1074;SDS011;526;51.392;12.448;2023-04-10T11:39:13;6.30;;;4.60;;
1074;SDS011;526;51.392;12.448;2023-04-10T11:41:52;3.37;;;3.17;;
1074;SDS011;526;51.392;12.448;2023-04-10T11:44:29;8.17;;;5.97;;
1074;SDS011;526;51.392;12.448;2023-04-10T11:46:59;6.23;;;3.60;;
1074;SDS011;526;51.392;12.448;2023-04-10T11:49:26;5.70;;;3.63;;
1074;SDS011;526;51.392;12.448;2023-04-10T11:51:53;3.93;;;3.07;;
1074;SDS011;526;51.392;12.448;2023-04-10T11:54:20;3.77;;;2.77;;
1074;SDS011;526;51.392;12.448;2023-04-10T11:59:25;11.63;;;4.10;;
1074;SDS011;526;51.392;12.448;2023-04-10T12:01:52;4.50;;;3.47;;
1074;SDS011;526;51.392;12.448;2023-04-10T12:04:21;5.60;;;3.47;;
1074;SDS011;526;51.392;12.448;2023-04-10T12:06:48;11.63;;;4.90;;
1074;SDS011;526;51.392;12.448;2023-04-10T12:09:16;4.50;;;2.33;;
1074;SDS011;526;51.392;12.448;2023-04-10T12:11:50;4.67;;;2.43;;
1074;SDS011;526;51.392;12.448;2023-04-10T12:14:17;5.47;;;4.13;;
1074;SDS011;526;51.392;12.448;2023-04-10T12:16:44;8.07;;;3.77;;
1074;SDS011;526;51.392;12.448;2023-04-10T12:19:10;7.90;;;3.27;;
1074;SDS011;526;51.392;12.448;2023-04-10T12:21:37;5.47;;;3.50;;
1074;SDS011;526;51.392;12.448;2023-04-10T12:24:04;8.47;;;3.37;;
1074;SDS011;526;51.392;12.448;2023-04-10T12:26:29;5.90;;;3.60;;
1074;SDS011;526;51.392;12.448;2023-04-10T12:28:57;3.53;;;2.90;;
1074;SDS011;526;51.392;12.448;2023-04-10T12:31:27;6.93;;;3.30;;
1074;SDS011;526;51.392;12.448;2023-04-10T12:34:00;1.90;;;1.80;;
1074;SDS011;526;51.392;12.448;2023-04-10T12:36:30;7.07;;;2.97;;
1074;SDS011;526;51.392;12.448;2023-04-10T12:38:59;9.63;;;3.10;;
1074;SDS011;526;51.392;12.448;2023-04-10T12:41:30;4.37;;;2.70;;
1074;SDS011;526;51.392;12.448;2023-04-10T12:44:07;5.50;;;3.67;;
1074;SDS011;526;51.392;12.448;2023-04-10T12:46:34;3.00;;;2.53;;
1074;SDS011;526;51.392;12.448;2023-04-10T12:49:10;4.40;;;2.27;;
1074;SDS011;526;51.392;12.448;2023-04-10T12:51:46;8.40;;;3.37;;
1074;SDS011;526;51.392;12.448;2023-04-10T12:54:34;7.27;;;3.90;;
1074;SDS011;526;51.392;12.448;2023-04-10T12:57:01;4.77;;;2.00;;
1074;SDS011;526;51.392;12.448;2023-04-10T12:59:28;4.67;;;2.60;;
1074;SDS011;526;51.392;12.448;2023-04-10T13:01:54;6.10;;;2.87;;
1074;SDS011;526;51.392;12.448;2023-04-10T13:04:20;7.83;;;3.93;;
1074;SDS011;526;51.392;12.448;2023-04-10T13:06:47;2.80;;;2.43;;
1074;SDS011;526;51.392;12.448;2023-04-10T13:09:13;3.10;;;2.57;;
1074;SDS011;526;51.392;12.448;2023-04-10T13:11:42;3.00;;;2.20;;
1074;SDS011;526;51.392;12.448;2023-04-10T13:14:07;3.43;;;2.87;;
1074;SDS011;526;51.392;12.448;2023-04-10T13:16:33;4.07;;;3.60;;
1074;SDS011;526;51.392;12.448;2023-04-10T13:18:59;6.70;;;3.73;;
1074;SDS011;526;51.392;12.448;2023-04-10T13:21:25;2.40;;;2.23;;
1074;SDS011;526;51.392;12.448;2023-04-10T13:23:52;1.93;;;1.80;;
1074;SDS011;526;51.392;12.448;2023-04-10T13:26:19;8.63;;;3.13;;
1074;SDS011;526;51.392;12.448;2023-04-10T13:28:45;8.87;;;3.67;;
1074;SDS011;526;51.392;12.448;2023-04-10T13:31:10;6.00;;;2.17;;
1074;SDS011;526;51.392;12.448;2023-04-10T13:33:36;4.67;;;2.60;;
1074;SDS011;526;51.392;12.448;2023-04-10T13:36:03;2.97;;;2.37;;
1074;SDS011;526;51.392;12.448;2023-04-10T13:38:29;2.87;;;2.40;;
1074;SDS011;526;51.392;12.448;2023-04-10T13:40:55;2.63;;;2.43;;
1074;SDS011;526;51.392;12.448;2023-04-10T13:43:20;5.27;;;3.47;;
1074;SDS011;526;51.392;12.448;2023-04-10T13:45:46;8.43;;;2.57;;
1074;SDS011;526;51.392;12.448;2023-04-10T13:48:13;3.97;;;3.13;;
1074;SDS011;526;51.392;12.448;2023-04-10T13:50:41;2.70;;;2.50;;
1074;SDS011;526;51.392;12.448;2023-04-10T13:53:06;4.20;;;2.70;;
1074;SDS011;526;51.392;12.448;2023-04-10T13:55:34;2.27;;;2.03;;
1074;SDS011;526;51.392;12.448;2023-04-10T13:58:01;3.10;;;2.77;;
1074;SDS011;526;51.392;12.448;2023-04-10T14:00:26;6.03;;;2.30;;
1074;SDS011;526;51.392;12.448;2023-04-10T14:02:52;7.60;;;2.90;;
1074;SDS011;526;51.392;12.448;2023-04-10T14:05:17;3.17;;;2.03;;
1074;SDS011;526;51.392;12.448;2023-04-10T14:07:43;2.60;;;2.30;;
1074;SDS011;526;51.392;12.448;2023-04-10T14:10:11;3.80;;;2.47;;
1074;SDS011;526;51.392;12.448;2023-04-10T14:12:36;2.37;;;1.70;;
1074;SDS011;526;51.392;12.448;2023-04-10T14:15:02;1.33;;;1.33;;
1074;SDS011;526;51.392;12.448;2023-04-10T14:17:27;3.20;;;2.10;;
1074;SDS011;526;51.392;12.448;2023-04-10T14:19:53;1.73;;;1.23;;
1074;SDS011;526;51.392;12.448;2023-04-10T14:22:19;2.63;;;1.90;;
1074;SDS011;526;51.392;12.448;2023-04-10T14:24:45;2.40;;;1.70;;
1074;SDS011;526;51.392;12.448;2023-04-10T14:27:10;2.07;;;1.90;;
1074;SDS011;526;51.392;12.448;2023-04-10T14:29:36;1.60;;;1.50;;
1074;SDS011;526;51.392;12.448;2023-04-10T14:32:04;1.80;;;1.60;;
1074;SDS011;526;51.392;12.448;2023-04-10T14:34:34;2.20;;;1.87;;
1074;SDS011;526;51.392;12.448;2023-04-10T14:37:00;5.07;;;3.33;;
1074;SDS011;526;51.392;12.448;2023-04-10T14:39:26;3.13;;;1.47;;
1074;SDS011;526;51.392;12.448;2023-04-10T14:41:51;3.60;;;1.33;;
1074;SDS011;526;51.392;12.448;2023-04-10T14:44:17;12.13;;;3.40;;
1074;SDS011;526;51.392;12.448;2023-04-10T14:46:43;2.87;;;1.40;;
1074;SDS011;526;51.392;12.448;2023-04-10T14:49:09;2.93;;;1.60;;
1074;SDS011;526;51.392;12.448;2023-04-10T14:51:35;3.77;;;2.47;;
1074;SDS011;526;51.392;12.448;2023-04-10T14:54:01;3.57;;;2.57;;
1074;SDS011;526;51.392;12.448;2023-04-10T14:56:28;2.50;;;2.30;;
1074;SDS011;526;51.392;12.448;2023-04-10T14:58:53;3.63;;;1.50;;
1074;SDS011;526;51.392;12.448;2023-04-10T15:01:19;1.50;;;1.40;;
1074;SDS011;526;51.392;12.448;2023-04-10T15:03:45;4.43;;;2.23;;
1074;SDS011;526;51.392;12.448;2023-04-10T15:06:45;4.73;;;2.77;;
1074;SDS011;526;51.392;12.448;2023-04-10T15:09:22;3.20;;;2.90;;
1074;SDS011;526;51.392;12.448;2023-04-10T15:15:41;2.63;;;1.90;;
1074;SDS011;526;51.392;12.448;2023-04-10T15:18:20;1.80;;;1.60;;
1074;SDS011;526;51.392;12.448;2023-04-10T15:20:52;2.13;;;2.00;;
1074;SDS011;526;51.392;12.448;2023-04-10T15:23:30;5.27;;;2.20;;
1074;SDS011;526;51.392;12.448;2023-04-10T15:26:01;7.20;;;1.77;;
1074;SDS011;526;51.392;12.448;2023-04-10T15:28:27;3.73;;;2.30;;
1074;SDS011;526;51.392;12.448;2023-04-10T15:30:55;2.33;;;1.60;;
1074;SDS011;526;51.392;12.448;2023-04-10T15:33:28;6.13;;;2.67;;
1074;SDS011;526;51.392;12.448;2023-04-10T15:35:53;2.33;;;2.03;;
1074;SDS011;526;51.392;12.448;2023-04-10T15:38:31;3.57;;;2.40;;
1074;SDS011;526;51.392;12.448;2023-04-10T15:41:00;3.40;;;2.20;;
1074;SDS011;526;51.392;12.448;2023-04-10T15:43:31;3.07;;;2.40;;
1074;SDS011;526;51.392;12.448;2023-04-10T15:45:57;1.97;;;1.70;;
1074;SDS011;526;51.392;12.448;2023-04-10T15:48:25;2.70;;;2.23;;